sensor_id;sensor_type;location;lat;lon;timestamp;P1;durP1;ratioP1;P2;durP2;ratioP2
42590;SDS011;28218;53.342;-6.216;2023-12-20T00:01:04;18.40;;;2.90;;
42590;SDS011;28218;53.342;-6.216;2023-12-20T00:03:36;16.38;;;2.88;;
42590;SDS011;28218;53.342;-6.216;2023-12-20T00:07:45;14.75;;;2.83;;
42590;SDS011;28218;53.342;-6.216;2023-12-20T00:09:48;16.17;;;2.65;;
42590;SDS011;28218;53.342;-6.216;2023-12-20T00:12:27;14.85;;;2.72;;
42590;SDS011;28218;53.342;-6.216;2023-12-20T00:15:01;17.92;;;3.38;;
42590;SDS011;28218;53.342;-6.216;2023-12-20T00:17:44;10.82;;;2.58;;
42590;SDS011;28218;53.342;-6.216;2023-12-20T00:20:27;21.08;;;3.78;;
42590;SDS011;28218;53.342;-6.216;2023-12-20T00:22:59;13.63;;;2.83;;
42590;SDS011;28218;53.342;-6.216;2023-12-20T00:29:35;15.13;;;2.42;;
42590;SDS011;28218;53.342;-6.216;2023-12-20T00:32:27;16.95;;;2.75;;
42590;SDS011;28218;53.342;-6.216;2023-12-20T00:35:14;19.25;;;2.53;;
42590;SDS011;28218;53.342;-6.216;2023-12-20T00:38:33;15.88;;;2.63;;
42590;SDS011;28218;53.342;-6.216;2023-12-20T00:41:13;14.55;;;2.95;;
42590;SDS011;28218;53.342;-6.216;2023-12-20T00:44:13;17.23;;;3.83;;
42590;SDS011;28218;53.342;-6.216;2023-12-20T00:46:50;16.40;;;2.97;;
42590;SDS011;28218;53.342;-6.216;2023-12-20T00:52:28;16.52;;;2.80;;
42590;SDS011;28218;53.342;-6.216;2023-12-20T00:55:25;13.35;;;2.45;;
42590;SDS011;28218;53.342;-6.216;2023-12-20T00:58:06;13.98;;;2.83;;
42590;SDS011;28218;53.342;-6.216;2023-12-20T01:01:39;11.82;;;2.63;;
42590;SDS011;28218;53.342;-6.216;2023-12-20T01:04:47;17.85;;;2.53;;
42590;SDS011;28218;53.342;-6.216;2023-12-20T01:11:03;15.13;;;2.47;;
42590;SDS011;28218;53.342;-6.216;2023-12-20T01:17:30;12.35;;;2.97;;
42590;SDS011;28218;53.342;-6.216;2023-12-20T01:19:51;20.58;;;2.85;;
42590;SDS011;28218;53.342;-6.216;2023-12-20T01:22:37;13.10;;;2.40;;
42590;SDS011;28218;53.342;-6.216;2023-12-20T01:26:04;21.13;;;3.40;;
42590;SDS011;28218;53.342;-6.216;2023-12-20T01:28:37;17.00;;;1.90;;
42590;SDS011;28218;53.342;-6.216;2023-12-20T01:31:08;18.83;;;2.80;;
42590;SDS011;28218;53.342;-6.216;2023-12-20T01:34:07;11.93;;;3.00;;
42590;SDS011;28218;53.342;-6.216;2023-12-20T01:36:29;14.13;;;2.25;;
42590;SDS011;28218;53.342;-6.216;2023-12-20T01:39:01;20.20;;;2.45;;
42590;SDS011;28218;53.342;-6.216;2023-12-20T01:41:40;10.50;;;2.42;;
42590;SDS011;28218;53.342;-6.216;2023-12-20T01:44:12;15.43;;;2.28;;
42590;SDS011;28218;53.342;-6.216;2023-12-20T01:46:41;19.40;;;2.53;;
42590;SDS011;28218;53.342;-6.216;2023-12-20T01:49:13;11.95;;;2.13;;
42590;SDS011;28218;53.342;-6.216;2023-12-20T01:51:48;12.27;;;2.38;;
42590;SDS011;28218;53.342;-6.216;2023-12-20T01:54:18;20.35;;;2.67;;
42590;SDS011;28218;53.342;-6.216;2023-12-20T01:56:50;17.33;;;2.75;;
42590;SDS011;28218;53.342;-6.216;2023-12-20T01:59:22;19.07;;;3.20;;
42590;SDS011;28218;53.342;-6.216;2023-12-20T02:02:05;14.95;;;1.73;;
42590;SDS011;28218;53.342;-6.216;2023-12-20T02:04:45;12.88;;;2.83;;
42590;SDS011;28218;53.342;-6.216;2023-12-20T02:07:14;16.67;;;2.60;;
42590;SDS011;28218;53.342;-6.216;2023-12-20T02:09:57;12.75;;;2.28;;
42590;SDS011;28218;53.342;-6.216;2023-12-20T02:12:49;13.48;;;2.13;;
42590;SDS011;28218;53.342;-6.216;2023-12-20T02:15:33;12.68;;;1.85;;
42590;SDS011;28218;53.342;-6.216;2023-12-20T02:18:31;14.48;;;1.95;;
42590;SDS011;28218;53.342;-6.216;2023-12-20T02:21:33;7.90;;;1.27;;
42590;SDS011;28218;53.342;-6.216;2023-12-20T02:27:09;12.73;;;2.10;;
42590;SDS011;28218;53.342;-6.216;2023-12-20T02:29:49;9.50;;;3.03;;
42590;SDS011;28218;53.342;-6.216;2023-12-20T02:32:19;16.02;;;2.83;;
42590;SDS011;28218;53.342;-6.216;2023-12-20T02:35:07;12.05;;;2.15;;
42590;SDS011;28218;53.342;-6.216;2023-12-20T02:38:11;10.60;;;2.17;;
42590;SDS011;28218;53.342;-6.216;2023-12-20T02:40:44;7.32;;;2.05;;
42590;SDS011;28218;53.342;-6.216;2023-12-20T02:43:15;15.35;;;2.28;;
42590;SDS011;28218;53.342;-6.216;2023-12-20T02:45:44;9.63;;;2.03;;
42590;SDS011;28218;53.342;-6.216;2023-12-20T02:48:13;9.93;;;1.80;;
42590;SDS011;28218;53.342;-6.216;2023-12-20T02:50:44;11.75;;;2.00;;
42590;SDS011;28218;53.342;-6.216;2023-12-20T02:53:21;11.50;;;1.55;;
42590;SDS011;28218;53.342;-6.216;2023-12-20T02:55:53;11.13;;;1.63;;
42590;SDS011;28218;53.342;-6.216;2023-12-20T02:58:21;12.70;;;2.30;;
42590;SDS011;28218;53.342;-6.216;2023-12-20T03:00:50;10.07;;;1.50;;
42590;SDS011;28218;53.342;-6.216;2023-12-20T03:03:55;8.23;;;1.65;;
42590;SDS011;28218;53.342;-6.216;2023-12-20T03:06:26;11.35;;;1.25;;
42590;SDS011;28218;53.342;-6.216;2023-12-20T03:08:56;11.27;;;2.17;;
42590;SDS011;28218;53.342;-6.216;2023-12-20T03:11:32;10.77;;;1.75;;
42590;SDS011;28218;53.342;-6.216;2023-12-20T03:14:00;9.95;;;1.60;;
42590;SDS011;28218;53.342;-6.216;2023-12-20T03:16:37;12.20;;;1.48;;
42590;SDS011;28218;53.342;-6.216;2023-12-20T03:19:17;5.82;;;1.17;;
42590;SDS011;28218;53.342;-6.216;2023-12-20T03:21:47;9.27;;;2.40;;
42590;SDS011;28218;53.342;-6.216;2023-12-20T03:24:17;10.13;;;1.80;;
42590;SDS011;28218;53.342;-6.216;2023-12-20T03:27:21;7.32;;;1.55;;
42590;SDS011;28218;53.342;-6.216;2023-12-20T03:29:50;15.38;;;1.98;;
42590;SDS011;28218;53.342;-6.216;2023-12-20T03:32:25;8.13;;;1.50;;
42590;SDS011;28218;53.342;-6.216;2023-12-20T03:34:53;13.02;;;2.60;;
42590;SDS011;28218;53.342;-6.216;2023-12-20T03:37:22;6.97;;;1.63;;
42590;SDS011;28218;53.342;-6.216;2023-12-20T03:39:52;10.45;;;1.80;;
42590;SDS011;28218;53.342;-6.216;2023-12-20T03:42:23;20.63;;;4.30;;
42590;SDS011;28218;53.342;-6.216;2023-12-20T03:44:52;14.23;;;2.28;;
42590;SDS011;28218;53.342;-6.216;2023-12-20T03:47:23;15.85;;;2.85;;
42590;SDS011;28218;53.342;-6.216;2023-12-20T03:49:52;9.48;;;1.55;;
42590;SDS011;28218;53.342;-6.216;2023-12-20T03:52:29;13.70;;;2.22;;
42590;SDS011;28218;53.342;-6.216;2023-12-20T03:55:03;10.57;;;1.80;;
42590;SDS011;28218;53.342;-6.216;2023-12-20T03:57:38;7.20;;;1.20;;
42590;SDS011;28218;53.342;-6.216;2023-12-20T04:00:07;10.63;;;2.05;;
42590;SDS011;28218;53.342;-6.216;2023-12-20T04:02:48;6.75;;;1.10;;
42590;SDS011;28218;53.342;-6.216;2023-12-20T04:05:17;10.25;;;1.70;;
42590;SDS011;28218;53.342;-6.216;2023-12-20T04:08:01;8.13;;;3.15;;
42590;SDS011;28218;53.342;-6.216;2023-12-20T04:10:52;8.68;;;1.50;;
42590;SDS011;28218;53.342;-6.216;2023-12-20T04:15:53;7.00;;;1.02;;
42590;SDS011;28218;53.342;-6.216;2023-12-20T04:18:25;6.75;;;1.30;;
42590;SDS011;28218;53.342;-6.216;2023-12-20T04:21:19;14.95;;;1.48;;
42590;SDS011;28218;53.342;-6.216;2023-12-20T04:23:56;9.18;;;1.70;;
42590;SDS011;28218;53.342;-6.216;2023-12-20T04:26:45;5.43;;;1.15;;
42590;SDS011;28218;53.342;-6.216;2023-12-20T04:29:14;8.63;;;1.00;;
42590;SDS011;28218;53.342;-6.216;2023-12-20T04:31:42;13.13;;;2.20;;
42590;SDS011;28218;53.342;-6.216;2023-12-20T04:34:11;7.13;;;2.35;;
42590;SDS011;28218;53.342;-6.216;2023-12-20T04:36:40;8.70;;;3.28;;
42590;SDS011;28218;53.342;-6.216;2023-12-20T04:39:18;7.93;;;1.25;;
42590;SDS011;28218;53.342;-6.216;2023-12-20T04:41:51;9.27;;;2.03;;
42590;SDS011;28218;53.342;-6.216;2023-12-20T04:44:20;11.10;;;1.52;;
42590;SDS011;28218;53.342;-6.216;2023-12-20T04:47:07;7.97;;;1.45;;
42590;SDS011;28218;53.342;-6.216;2023-12-20T04:49:40;14.93;;;2.85;;
42590;SDS011;28218;53.342;-6.216;2023-12-20T04:52:34;17.00;;;2.15;;
42590;SDS011;28218;53.342;-6.216;2023-12-20T04:55:06;10.15;;;1.90;;
42590;SDS011;28218;53.342;-6.216;2023-12-20T04:57:37;9.38;;;1.45;;
42590;SDS011;28218;53.342;-6.216;2023-12-20T05:00:06;8.00;;;1.40;;
42590;SDS011;28218;53.342;-6.216;2023-12-20T05:02:37;9.23;;;1.77;;
42590;SDS011;28218;53.342;-6.216;2023-12-20T05:05:12;14.68;;;2.25;;
42590;SDS011;28218;53.342;-6.216;2023-12-20T05:07:41;7.65;;;1.55;;
42590;SDS011;28218;53.342;-6.216;2023-12-20T05:10:10;4.38;;;1.30;;
42590;SDS011;28218;53.342;-6.216;2023-12-20T05:12:49;8.57;;;1.80;;
42590;SDS011;28218;53.342;-6.216;2023-12-20T05:15:17;3.53;;;0.82;;
42590;SDS011;28218;53.342;-6.216;2023-12-20T05:17:59;5.88;;;1.27;;
42590;SDS011;28218;53.342;-6.216;2023-12-20T05:20:42;8.55;;;1.08;;
42590;SDS011;28218;53.342;-6.216;2023-12-20T05:23:15;8.02;;;1.17;;
42590;SDS011;28218;53.342;-6.216;2023-12-20T05:25:44;6.20;;;1.42;;
42590;SDS011;28218;53.342;-6.216;2023-12-20T05:28:23;10.18;;;1.52;;
42590;SDS011;28218;53.342;-6.216;2023-12-20T05:35:57;10.18;;;1.80;;
42590;SDS011;28218;53.342;-6.216;2023-12-20T05:38:33;6.43;;;1.23;;
42590;SDS011;28218;53.342;-6.216;2023-12-20T05:41:07;8.80;;;1.30;;
42590;SDS011;28218;53.342;-6.216;2023-12-20T05:43:37;9.70;;;1.17;;
42590;SDS011;28218;53.342;-6.216;2023-12-20T05:46:20;8.75;;;1.35;;
42590;SDS011;28218;53.342;-6.216;2023-12-20T05:48:56;9.05;;;1.50;;
42590;SDS011;28218;53.342;-6.216;2023-12-20T05:51:31;11.25;;;1.92;;
42590;SDS011;28218;53.342;-6.216;2023-12-20T05:54:31;7.95;;;1.40;;
42590;SDS011;28218;53.342;-6.216;2023-12-20T05:57:03;7.70;;;2.45;;
42590;SDS011;28218;53.342;-6.216;2023-12-20T05:59:33;8.45;;;1.25;;
42590;SDS011;28218;53.342;-6.216;2023-12-20T06:04:47;8.95;;;1.95;;
42590;SDS011;28218;53.342;-6.216;2023-12-20T06:07:16;10.45;;;1.25;;
42590;SDS011;28218;53.342;-6.216;2023-12-20T06:09:48;9.88;;;1.60;;
42590;SDS011;28218;53.342;-6.216;2023-12-20T06:12:25;13.32;;;1.85;;
42590;SDS011;28218;53.342;-6.216;2023-12-20T06:14:57;7.20;;;2.55;;
42590;SDS011;28218;53.342;-6.216;2023-12-20T06:18:04;8.07;;;1.65;;
42590;SDS011;28218;53.342;-6.216;2023-12-20T06:20:35;8.90;;;1.30;;
42590;SDS011;28218;53.342;-6.216;2023-12-20T06:23:15;6.25;;;1.25;;
42590;SDS011;28218;53.342;-6.216;2023-12-20T06:25:44;11.70;;;2.40;;
42590;SDS011;28218;53.342;-6.216;2023-12-20T06:28:19;6.97;;;1.48;;
42590;SDS011;28218;53.342;-6.216;2023-12-20T06:30:52;10.07;;;1.50;;
42590;SDS011;28218;53.342;-6.216;2023-12-20T06:33:24;6.63;;;1.30;;
42590;SDS011;28218;53.342;-6.216;2023-12-20T06:35:58;10.18;;;1.40;;
42590;SDS011;28218;53.342;-6.216;2023-12-20T06:38:29;12.23;;;2.28;;
42590;SDS011;28218;53.342;-6.216;2023-12-20T06:41:10;8.73;;;1.65;;
42590;SDS011;28218;53.342;-6.216;2023-12-20T06:43:42;7.82;;;1.63;;
42590;SDS011;28218;53.342;-6.216;2023-12-20T06:46:17;13.75;;;1.58;;
42590;SDS011;28218;53.342;-6.216;2023-12-20T06:48:48;14.77;;;1.83;;
42590;SDS011;28218;53.342;-6.216;2023-12-20T06:53:55;10.80;;;1.63;;
42590;SDS011;28218;53.342;-6.216;2023-12-20T06:56:26;7.57;;;1.80;;
42590;SDS011;28218;53.342;-6.216;2023-12-20T06:58:54;7.75;;;1.80;;
42590;SDS011;28218;53.342;-6.216;2023-12-20T07:01:27;8.88;;;1.65;;
42590;SDS011;28218;53.342;-6.216;2023-12-20T07:03:56;7.22;;;2.03;;
42590;SDS011;28218;53.342;-6.216;2023-12-20T07:06:25;4.80;;;1.20;;
42590;SDS011;28218;53.342;-6.216;2023-12-20T07:08:53;12.68;;;1.65;;
42590;SDS011;28218;53.342;-6.216;2023-12-20T07:11:22;6.95;;;1.65;;
42590;SDS011;28218;53.342;-6.216;2023-12-20T07:13:51;7.13;;;1.70;;
42590;SDS011;28218;53.342;-6.216;2023-12-20T07:16:20;6.90;;;1.40;;
42590;SDS011;28218;53.342;-6.216;2023-12-20T07:18:50;8.25;;;1.73;;
42590;SDS011;28218;53.342;-6.216;2023-12-20T07:21:20;10.73;;;1.65;;
42590;SDS011;28218;53.342;-6.216;2023-12-20T07:23:48;9.85;;;1.90;;
42590;SDS011;28218;53.342;-6.216;2023-12-20T07:26:16;13.10;;;1.52;;
42590;SDS011;28218;53.342;-6.216;2023-12-20T07:28:45;7.03;;;1.15;;
42590;SDS011;28218;53.342;-6.216;2023-12-20T07:31:15;7.57;;;1.33;;
42590;SDS011;28218;53.342;-6.216;2023-12-20T07:33:52;6.47;;;1.50;;
42590;SDS011;28218;53.342;-6.216;2023-12-20T07:36:21;7.18;;;1.88;;
42590;SDS011;28218;53.342;-6.216;2023-12-20T07:38:49;5.35;;;1.23;;
42590;SDS011;28218;53.342;-6.216;2023-12-20T07:41:18;5.75;;;1.70;;
42590;SDS011;28218;53.342;-6.216;2023-12-20T07:43:47;9.88;;;1.58;;
42590;SDS011;28218;53.342;-6.216;2023-12-20T07:46:16;2.20;;;1.33;;
42590;SDS011;28218;53.342;-6.216;2023-12-20T07:48:45;9.45;;;1.70;;
42590;SDS011;28218;53.342;-6.216;2023-12-20T07:51:16;14.70;;;1.92;;
42590;SDS011;28218;53.342;-6.216;2023-12-20T07:53:44;7.20;;;1.80;;
42590;SDS011;28218;53.342;-6.216;2023-12-20T07:56:17;8.27;;;1.75;;
42590;SDS011;28218;53.342;-6.216;2023-12-20T07:58:48;11.90;;;3.20;;
42590;SDS011;28218;53.342;-6.216;2023-12-20T08:01:51;11.18;;;2.53;;
42590;SDS011;28218;53.342;-6.216;2023-12-20T08:04:26;19.30;;;3.65;;
42590;SDS011;28218;53.342;-6.216;2023-12-20T08:06:55;13.75;;;2.63;;
42590;SDS011;28218;53.342;-6.216;2023-12-20T08:09:27;15.43;;;2.08;;
42590;SDS011;28218;53.342;-6.216;2023-12-20T08:11:55;12.95;;;2.33;;
42590;SDS011;28218;53.342;-6.216;2023-12-20T08:14:26;10.73;;;2.27;;
42590;SDS011;28218;53.342;-6.216;2023-12-20T08:16:54;11.40;;;1.50;;
42590;SDS011;28218;53.342;-6.216;2023-12-20T08:19:25;11.00;;;2.42;;
42590;SDS011;28218;53.342;-6.216;2023-12-20T08:21:53;13.88;;;2.53;;
42590;SDS011;28218;53.342;-6.216;2023-12-20T08:24:24;22.45;;;3.67;;
42590;SDS011;28218;53.342;-6.216;2023-12-20T08:27:11;11.07;;;2.40;;
42590;SDS011;28218;53.342;-6.216;2023-12-20T08:29:48;13.23;;;2.65;;
42590;SDS011;28218;53.342;-6.216;2023-12-20T08:32:17;15.57;;;3.70;;
42590;SDS011;28218;53.342;-6.216;2023-12-20T08:34:45;10.13;;;2.03;;
42590;SDS011;28218;53.342;-6.216;2023-12-20T08:37:21;12.10;;;2.42;;
42590;SDS011;28218;53.342;-6.216;2023-12-20T08:39:49;15.63;;;2.30;;
42590;SDS011;28218;53.342;-6.216;2023-12-20T08:42:20;15.23;;;2.80;;
42590;SDS011;28218;53.342;-6.216;2023-12-20T08:44:48;11.98;;;2.00;;
42590;SDS011;28218;53.342;-6.216;2023-12-20T08:47:25;19.83;;;4.28;;
42590;SDS011;28218;53.342;-6.216;2023-12-20T08:50:05;21.98;;;3.60;;
42590;SDS011;28218;53.342;-6.216;2023-12-20T08:52:40;15.07;;;2.30;;
42590;SDS011;28218;53.342;-6.216;2023-12-20T08:55:11;8.50;;;2.15;;
42590;SDS011;28218;53.342;-6.216;2023-12-20T08:57:42;13.23;;;3.60;;
42590;SDS011;28218;53.342;-6.216;2023-12-20T09:00:11;14.50;;;2.70;;
42590;SDS011;28218;53.342;-6.216;2023-12-20T09:02:49;14.45;;;3.00;;
42590;SDS011;28218;53.342;-6.216;2023-12-20T09:05:17;11.98;;;2.80;;
42590;SDS011;28218;53.342;-6.216;2023-12-20T09:07:51;20.05;;;2.22;;
42590;SDS011;28218;53.342;-6.216;2023-12-20T09:10:25;15.35;;;2.95;;
42590;SDS011;28218;53.342;-6.216;2023-12-20T09:12:54;14.60;;;2.90;;
42590;SDS011;28218;53.342;-6.216;2023-12-20T09:15:24;14.60;;;2.42;;
42590;SDS011;28218;53.342;-6.216;2023-12-20T09:18:07;11.88;;;2.70;;
42590;SDS011;28218;53.342;-6.216;2023-12-20T09:20:45;17.70;;;4.05;;
42590;SDS011;28218;53.342;-6.216;2023-12-20T09:23:29;22.33;;;3.33;;
42590;SDS011;28218;53.342;-6.216;2023-12-20T09:25:57;22.63;;;3.25;;
42590;SDS011;28218;53.342;-6.216;2023-12-20T09:28:25;20.38;;;2.70;;
42590;SDS011;28218;53.342;-6.216;2023-12-20T09:30:56;16.98;;;3.38;;
42590;SDS011;28218;53.342;-6.216;2023-12-20T09:33:28;23.17;;;4.57;;
42590;SDS011;28218;53.342;-6.216;2023-12-20T09:36:03;26.45;;;3.72;;
42590;SDS011;28218;53.342;-6.216;2023-12-20T09:38:39;15.13;;;2.45;;
42590;SDS011;28218;53.342;-6.216;2023-12-20T09:41:15;16.27;;;4.15;;
42590;SDS011;28218;53.342;-6.216;2023-12-20T09:43:44;20.08;;;3.25;;
42590;SDS011;28218;53.342;-6.216;2023-12-20T09:46:12;17.10;;;2.90;;
42590;SDS011;28218;53.342;-6.216;2023-12-20T09:48:47;14.30;;;3.78;;
42590;SDS011;28218;53.342;-6.216;2023-12-20T09:51:15;20.33;;;4.25;;
42590;SDS011;28218;53.342;-6.216;2023-12-20T09:53:45;25.27;;;4.05;;
42590;SDS011;28218;53.342;-6.216;2023-12-20T09:56:15;23.80;;;3.80;;
42590;SDS011;28218;53.342;-6.216;2023-12-20T09:58:44;20.23;;;3.92;;
42590;SDS011;28218;53.342;-6.216;2023-12-20T10:01:12;19.17;;;3.65;;
42590;SDS011;28218;53.342;-6.216;2023-12-20T10:03:42;22.92;;;4.88;;
42590;SDS011;28218;53.342;-6.216;2023-12-20T10:06:11;24.05;;;3.38;;
42590;SDS011;28218;53.342;-6.216;2023-12-20T10:08:40;29.08;;;3.50;;
42590;SDS011;28218;53.342;-6.216;2023-12-20T10:11:19;15.43;;;3.85;;
42590;SDS011;28218;53.342;-6.216;2023-12-20T10:13:48;22.77;;;3.83;;
42590;SDS011;28218;53.342;-6.216;2023-12-20T10:16:16;24.20;;;4.07;;
42590;SDS011;28218;53.342;-6.216;2023-12-20T10:18:49;24.60;;;3.33;;
42590;SDS011;28218;53.342;-6.216;2023-12-20T10:21:18;22.67;;;3.85;;
42590;SDS011;28218;53.342;-6.216;2023-12-20T10:23:47;21.25;;;3.45;;
42590;SDS011;28218;53.342;-6.216;2023-12-20T10:26:22;18.40;;;3.15;;
42590;SDS011;28218;53.342;-6.216;2023-12-20T10:28:54;25.60;;;3.75;;
42590;SDS011;28218;53.342;-6.216;2023-12-20T10:31:59;19.30;;;3.13;;
42590;SDS011;28218;53.342;-6.216;2023-12-20T10:34:32;24.40;;;3.97;;
42590;SDS011;28218;53.342;-6.216;2023-12-20T10:37:02;15.90;;;3.70;;
42590;SDS011;28218;53.342;-6.216;2023-12-20T10:39:41;17.08;;;3.17;;
42590;SDS011;28218;53.342;-6.216;2023-12-20T10:42:17;21.15;;;3.85;;
42590;SDS011;28218;53.342;-6.216;2023-12-20T10:44:48;22.77;;;5.88;;
42590;SDS011;28218;53.342;-6.216;2023-12-20T10:47:17;32.58;;;5.38;;
42590;SDS011;28218;53.342;-6.216;2023-12-20T10:50:07;20.95;;;4.55;;
42590;SDS011;28218;53.342;-6.216;2023-12-20T10:53:01;27.45;;;5.18;;
42590;SDS011;28218;53.342;-6.216;2023-12-20T10:55:57;37.25;;;5.07;;
42590;SDS011;28218;53.342;-6.216;2023-12-20T11:01:15;29.85;;;4.55;;
42590;SDS011;28218;53.342;-6.216;2023-12-20T11:03:50;31.73;;;5.85;;
42590;SDS011;28218;53.342;-6.216;2023-12-20T11:06:31;27.55;;;5.10;;
42590;SDS011;28218;53.342;-6.216;2023-12-20T11:09:08;25.60;;;5.50;;
42590;SDS011;28218;53.342;-6.216;2023-12-20T11:12:00;29.20;;;4.63;;
42590;SDS011;28218;53.342;-6.216;2023-12-20T11:14:42;25.23;;;3.95;;
42590;SDS011;28218;53.342;-6.216;2023-12-20T11:17:17;19.92;;;4.10;;
42590;SDS011;28218;53.342;-6.216;2023-12-20T11:20:14;25.48;;;5.63;;
42590;SDS011;28218;53.342;-6.216;2023-12-20T11:22:51;33.88;;;5.15;;
42590;SDS011;28218;53.342;-6.216;2023-12-20T11:25:22;29.02;;;4.97;;
42590;SDS011;28218;53.342;-6.216;2023-12-20T11:28:06;35.13;;;5.38;;
42590;SDS011;28218;53.342;-6.216;2023-12-20T11:30:47;33.45;;;6.43;;
42590;SDS011;28218;53.342;-6.216;2023-12-20T11:33:22;35.97;;;4.57;;
42590;SDS011;28218;53.342;-6.216;2023-12-20T11:35:58;28.45;;;5.68;;
42590;SDS011;28218;53.342;-6.216;2023-12-20T11:41:32;34.15;;;4.88;;
42590;SDS011;28218;53.342;-6.216;2023-12-20T11:44:01;41.55;;;6.65;;
42590;SDS011;28218;53.342;-6.216;2023-12-20T11:46:31;31.27;;;4.97;;
42590;SDS011;28218;53.342;-6.216;2023-12-20T11:49:00;33.13;;;5.85;;
42590;SDS011;28218;53.342;-6.216;2023-12-20T11:51:29;37.40;;;6.28;;
42590;SDS011;28218;53.342;-6.216;2023-12-20T11:54:01;32.88;;;4.80;;
42590;SDS011;28218;53.342;-6.216;2023-12-20T11:56:44;38.22;;;6.97;;
42590;SDS011;28218;53.342;-6.216;2023-12-20T11:59:15;36.28;;;5.78;;
42590;SDS011;28218;53.342;-6.216;2023-12-20T12:01:50;34.63;;;6.05;;
42590;SDS011;28218;53.342;-6.216;2023-12-20T12:04:19;34.40;;;6.65;;
42590;SDS011;28218;53.342;-6.216;2023-12-20T12:06:47;29.15;;;6.05;;
42590;SDS011;28218;53.342;-6.216;2023-12-20T12:09:16;35.20;;;5.45;;
42590;SDS011;28218;53.342;-6.216;2023-12-20T12:11:45;36.17;;;5.82;;
42590;SDS011;28218;53.342;-6.216;2023-12-20T12:14:13;22.35;;;5.15;;
42590;SDS011;28218;53.342;-6.216;2023-12-20T12:16:42;34.28;;;5.80;;
42590;SDS011;28218;53.342;-6.216;2023-12-20T12:19:21;28.48;;;4.95;;
42590;SDS011;28218;53.342;-6.216;2023-12-20T12:22:04;34.50;;;6.55;;
42590;SDS011;28218;53.342;-6.216;2023-12-20T12:24:34;31.75;;;5.32;;
42590;SDS011;28218;53.342;-6.216;2023-12-20T12:27:03;29.05;;;5.25;;
42590;SDS011;28218;53.342;-6.216;2023-12-20T12:29:34;30.00;;;5.82;;
42590;SDS011;28218;53.342;-6.216;2023-12-20T12:32:04;28.92;;;5.15;;
42590;SDS011;28218;53.342;-6.216;2023-12-20T12:34:36;40.85;;;5.68;;
42590;SDS011;28218;53.342;-6.216;2023-12-20T12:37:04;30.17;;;5.72;;
42590;SDS011;28218;53.342;-6.216;2023-12-20T12:39:33;39.55;;;5.93;;
42590;SDS011;28218;53.342;-6.216;2023-12-20T12:42:02;30.25;;;5.75;;
42590;SDS011;28218;53.342;-6.216;2023-12-20T12:44:32;30.50;;;6.43;;
42590;SDS011;28218;53.342;-6.216;2023-12-20T12:47:00;36.05;;;5.20;;
42590;SDS011;28218;53.342;-6.216;2023-12-20T12:49:29;36.95;;;6.78;;
42590;SDS011;28218;53.342;-6.216;2023-12-20T12:51:59;34.63;;;5.75;;
42590;SDS011;28218;53.342;-6.216;2023-12-20T12:54:29;32.33;;;5.93;;
42590;SDS011;28218;53.342;-6.216;2023-12-20T12:56:57;29.27;;;5.45;;
42590;SDS011;28218;53.342;-6.216;2023-12-20T12:59:26;29.23;;;5.30;;
42590;SDS011;28218;53.342;-6.216;2023-12-20T13:01:53;26.88;;;5.28;;
42590;SDS011;28218;53.342;-6.216;2023-12-20T13:04:21;19.58;;;4.43;;
42590;SDS011;28218;53.342;-6.216;2023-12-20T13:06:50;22.35;;;5.70;;
42590;SDS011;28218;53.342;-6.216;2023-12-20T13:09:20;33.03;;;5.22;;
42590;SDS011;28218;53.342;-6.216;2023-12-20T13:11:48;23.10;;;5.07;;
42590;SDS011;28218;53.342;-6.216;2023-12-20T13:14:16;25.23;;;4.72;;
42590;SDS011;28218;53.342;-6.216;2023-12-20T13:16:48;26.23;;;5.82;;
42590;SDS011;28218;53.342;-6.216;2023-12-20T13:19:16;20.58;;;3.95;;
42590;SDS011;28218;53.342;-6.216;2023-12-20T13:21:46;37.08;;;5.97;;
42590;SDS011;28218;53.342;-6.216;2023-12-20T13:24:15;23.10;;;5.00;;
42590;SDS011;28218;53.342;-6.216;2023-12-20T13:26:45;23.13;;;5.88;;
42590;SDS011;28218;53.342;-6.216;2023-12-20T13:29:13;30.17;;;5.28;;
42590;SDS011;28218;53.342;-6.216;2023-12-20T13:31:42;27.08;;;4.85;;
42590;SDS011;28218;53.342;-6.216;2023-12-20T13:34:13;21.58;;;4.80;;
42590;SDS011;28218;53.342;-6.216;2023-12-20T13:36:44;26.75;;;4.63;;
42590;SDS011;28218;53.342;-6.216;2023-12-20T13:39:14;30.83;;;5.33;;
42590;SDS011;28218;53.342;-6.216;2023-12-20T13:41:44;29.63;;;5.78;;
42590;SDS011;28218;53.342;-6.216;2023-12-20T13:44:13;32.47;;;6.07;;
42590;SDS011;28218;53.342;-6.216;2023-12-20T13:46:42;32.78;;;5.50;;
42590;SDS011;28218;53.342;-6.216;2023-12-20T13:49:10;39.72;;;6.03;;
42590;SDS011;28218;53.342;-6.216;2023-12-20T13:51:39;34.95;;;5.95;;
42590;SDS011;28218;53.342;-6.216;2023-12-20T13:54:11;28.42;;;6.03;;
42590;SDS011;28218;53.342;-6.216;2023-12-20T13:56:39;29.58;;;5.70;;
42590;SDS011;28218;53.342;-6.216;2023-12-20T13:59:24;29.10;;;4.55;;
42590;SDS011;28218;53.342;-6.216;2023-12-20T14:01:52;28.35;;;5.50;;
42590;SDS011;28218;53.342;-6.216;2023-12-20T14:04:21;29.73;;;5.15;;
42590;SDS011;28218;53.342;-6.216;2023-12-20T14:07:08;27.42;;;4.35;;
42590;SDS011;28218;53.342;-6.216;2023-12-20T14:09:39;19.20;;;4.55;;
42590;SDS011;28218;53.342;-6.216;2023-12-20T14:12:13;32.03;;;5.25;;
42590;SDS011;28218;53.342;-6.216;2023-12-20T14:14:43;33.08;;;5.45;;
42590;SDS011;28218;53.342;-6.216;2023-12-20T14:17:12;22.73;;;4.63;;
42590;SDS011;28218;53.342;-6.216;2023-12-20T14:19:40;37.05;;;6.03;;
42590;SDS011;28218;53.342;-6.216;2023-12-20T14:22:09;22.45;;;4.68;;
42590;SDS011;28218;53.342;-6.216;2023-12-20T14:24:41;23.98;;;5.15;;
42590;SDS011;28218;53.342;-6.216;2023-12-20T14:27:09;23.92;;;4.05;;
42590;SDS011;28218;53.342;-6.216;2023-12-20T14:29:38;21.45;;;4.05;;
42590;SDS011;28218;53.342;-6.216;2023-12-20T14:32:08;19.75;;;3.53;;
42590;SDS011;28218;53.342;-6.216;2023-12-20T14:34:36;17.15;;;4.03;;
42590;SDS011;28218;53.342;-6.216;2023-12-20T14:37:08;22.30;;;4.68;;
42590;SDS011;28218;53.342;-6.216;2023-12-20T14:39:36;16.10;;;3.38;;
42590;SDS011;28218;53.342;-6.216;2023-12-20T14:44:40;17.13;;;2.80;;
42590;SDS011;28218;53.342;-6.216;2023-12-20T14:47:10;16.00;;;3.55;;
42590;SDS011;28218;53.342;-6.216;2023-12-20T14:49:40;16.15;;;2.38;;
42590;SDS011;28218;53.342;-6.216;2023-12-20T14:52:10;18.42;;;3.85;;
42590;SDS011;28218;53.342;-6.216;2023-12-20T14:54:40;16.45;;;3.67;;
42590;SDS011;28218;53.342;-6.216;2023-12-20T14:57:09;14.25;;;3.78;;
42590;SDS011;28218;53.342;-6.216;2023-12-20T14:59:37;16.75;;;4.10;;
42590;SDS011;28218;53.342;-6.216;2023-12-20T15:02:05;10.07;;;3.28;;
42590;SDS011;28218;53.342;-6.216;2023-12-20T15:04:35;13.68;;;2.38;;
42590;SDS011;28218;53.342;-6.216;2023-12-20T15:07:04;13.05;;;3.83;;
42590;SDS011;28218;53.342;-6.216;2023-12-20T15:09:33;17.20;;;3.03;;
42590;SDS011;28218;53.342;-6.216;2023-12-20T15:12:01;14.38;;;3.40;;
42590;SDS011;28218;53.342;-6.216;2023-12-20T15:17:13;17.38;;;3.33;;
42590;SDS011;28218;53.342;-6.216;2023-12-20T15:19:43;8.38;;;2.65;;
42590;SDS011;28218;53.342;-6.216;2023-12-20T15:22:12;7.43;;;2.28;;
42590;SDS011;28218;53.342;-6.216;2023-12-20T15:24:43;9.90;;;2.70;;
42590;SDS011;28218;53.342;-6.216;2023-12-20T15:27:13;5.80;;;1.92;;
42590;SDS011;28218;53.342;-6.216;2023-12-20T15:29:44;11.55;;;2.08;;
42590;SDS011;28218;53.342;-6.216;2023-12-20T15:32:12;8.38;;;2.85;;
42590;SDS011;28218;53.342;-6.216;2023-12-20T15:34:44;9.07;;;1.77;;
42590;SDS011;28218;53.342;-6.216;2023-12-20T15:37:13;8.15;;;1.55;;
42590;SDS011;28218;53.342;-6.216;2023-12-20T15:39:41;7.82;;;1.65;;
42590;SDS011;28218;53.342;-6.216;2023-12-20T15:42:10;5.47;;;1.70;;
42590;SDS011;28218;53.342;-6.216;2023-12-20T15:44:38;5.75;;;1.85;;
42590;SDS011;28218;53.342;-6.216;2023-12-20T15:47:06;12.55;;;2.92;;
42590;SDS011;28218;53.342;-6.216;2023-12-20T15:49:38;4.03;;;1.50;;